Time;durP1;ratioP1;P1;durP2;ratioP2;P2;SDS_P1;SDS_P2;PMS_P1;PMS_P2;Temp;Humidity;BMP_temperature;BMP_pressure;BME280_temperature;BME280_humidity;BME280_pressure;Samples;Min_cycle;Max_cycle;Signal;HPM_P1;HPM_P2
2022/01/19 00:01:34;;;;;;;6.00;1.60;;;20.40;44.50;;;;;;5033880;28;20972;-72
2022/01/19 00:04:00;;;;;;;2.70;1.50;;;20.50;44.60;;;;;;5034021;28;20416;-72
2022/01/19 00:06:25;;;;;;;6.50;1.50;;;20.50;44.80;;;;;;5033612;28;20823;-72
2022/01/19 00:08:52;;;;;;;3.00;1.80;;;20.50;44.50;;;;;;5034040;28;20680;-72
2022/01/19 00:11:18;;;;;;;5.70;1.70;;;20.40;44.60;;;;;;5033653;28;20177;-73
2022/01/19 00:13:44;;;;;;;3.70;1.77;;;20.40;44.70;;;;;;5033856;28;20436;-72
2022/01/19 00:16:09;;;;;;;2.20;1.60;;;20.40;44.60;;;;;;5033687;28;20557;-72
2022/01/19 00:18:35;;;;;;;2.07;1.67;;;20.40;44.50;;;;;;5033794;28;20188;-72
2022/01/19 00:21:01;;;;;;;8.80;1.90;;;20.40;44.50;;;;;;5033730;28;20178;-72
2022/01/19 00:23:27;;;;;;;1.60;1.37;;;20.40;44.50;;;;;;5033319;28;20181;-72
2022/01/19 00:25:55;;;;;;;1.90;1.40;;;20.30;44.50;;;;;;5033471;28;20229;-73
2022/01/19 00:28:22;;;;;;;3.53;1.80;;;20.30;44.30;;;;;;5033486;28;20416;-72
2022/01/19 00:30:48;;;;;;;2.77;1.43;;;20.30;44.70;;;;;;5032088;28;20738;-72
2022/01/19 00:33:14;;;;;;;3.40;1.97;;;20.30;44.40;;;;;;5033124;28;20407;-73
2022/01/19 00:35:40;;;;;;;3.03;1.80;;;20.30;44.40;;;;;;5033190;28;20412;-73
2022/01/19 00:38:07;;;;;;;4.30;1.60;;;20.30;44.60;;;;;;5031094;28;20451;-73
2022/01/19 00:40:33;;;;;;;2.10;1.33;;;20.30;44.50;;;;;;5033215;28;20880;-73
2022/01/19 00:42:59;;;;;;;2.53;1.50;;;20.20;44.40;;;;;;5032959;28;20471;-73
2022/01/19 00:45:25;;;;;;;6.30;1.83;;;20.20;44.50;;;;;;5033255;28;20452;-73
2022/01/19 00:47:51;;;;;;;4.23;1.67;;;20.20;44.50;;;;;;5033233;28;20695;-73
2022/01/19 00:50:24;;;;;;;4.57;1.80;;;20.20;44.50;;;;;;5033282;28;20427;-72
2022/01/19 00:52:51;;;;;;;2.80;1.70;;;20.20;44.40;;;;;;5030973;28;20409;-72
2022/01/19 00:55:18;;;;;;;5.27;1.90;;;20.20;44.20;;;;;;5033187;28;20447;-72
2022/01/19 00:57:44;;;;;;;4.80;1.60;;;20.40;44.70;;;;;;5032954;28;20519;-72
2022/01/19 01:00:15;;;;;;;3.00;1.83;;;20.20;44.40;;;;;;5032724;28;20486;-72
2022/01/19 01:02:41;;;;;;;2.80;1.63;;;20.20;44.50;;;;;;5032632;28;20162;-72
2022/01/19 01:05:07;;;;;;;2.93;1.57;;;20.20;44.30;;;;;;5032609;28;20769;-72
2022/01/19 01:07:33;;;;;;;2.23;1.70;;;20.20;44.30;;;;;;5032660;28;20204;-72
2022/01/19 01:10:00;;;;;;;13.30;1.80;;;20.20;44.30;;;;;;5032543;28;20435;-73
2022/01/19 01:12:43;;;;;;;3.90;1.80;;;20.20;44.70;;;;;;5032430;28;20400;-73
2022/01/19 01:20:35;;;;;;;3.70;2.00;;;20.10;44.40;;;;;;5032671;28;20409;-72
2022/01/19 01:23:03;;;;;;;2.50;1.50;;;20.10;44.40;;;;;;5032195;28;20408;-72
2022/01/19 01:25:28;;;;;;;2.40;1.60;;;20.10;44.50;;;;;;5032453;28;20459;-72
2022/01/19 01:27:54;;;;;;;4.83;1.60;;;20.10;44.60;;;;;;5032109;28;20435;-71
2022/01/19 01:30:20;;;;;;;1.60;1.20;;;20.10;44.50;;;;;;5032149;28;20226;-71
2022/01/19 01:32:46;;;;;;;2.17;1.30;;;20.10;44.30;;;;;;5032059;28;20633;-71
2022/01/19 01:35:12;;;;;;;2.50;1.43;;;20.10;44.50;;;;;;5032378;28;20412;-71
2022/01/19 01:37:37;;;;;;;3.37;1.53;;;20.10;44.70;;;;;;5031958;28;20808;-71
2022/01/19 01:40:05;;;;;;;4.13;1.83;;;20.10;44.50;;;;;;5031745;28;20296;-72
2022/01/19 01:42:30;;;;;;;3.03;1.87;;;20.10;44.90;;;;;;5031888;28;20427;-72
2022/01/19 01:44:59;;;;;;;3.10;1.67;;;20.10;44.70;;;;;;5031958;28;20904;-71
2022/01/19 01:47:26;;;;;;;9.60;2.00;;;20.10;44.60;;;;;;5031788;28;20282;-72
2022/01/19 01:55:09;;;;;;;4.07;1.70;;;20.10;45.00;;;;;;5031873;28;20173;-72
2022/01/19 01:57:35;;;;;;;9.53;2.00;;;20.10;45.00;;;;;;5031884;28;20792;-72
2022/01/19 02:00:01;;;;;;;4.53;2.10;;;20.10;44.90;;;;;;5031547;28;20401;-72
2022/01/19 02:02:27;;;;;;;6.17;1.80;;;20.10;44.90;;;;;;5031425;28;20174;-72
2022/01/19 02:04:52;;;;;;;8.93;1.90;;;20.10;44.80;;;;;;5030702;28;20411;-72
2022/01/19 02:07:32;;;;;;;5.63;1.70;;;20.10;44.70;;;;;;5031463;28;20291;-72
2022/01/19 02:10:02;;;;;;;3.70;1.73;;;20.10;44.70;;;;;;5031739;28;20181;-72
2022/01/19 02:23:34;;;;;;;3.30;1.97;;;20.10;44.60;;;;;;5031116;28;20435;-72
2022/01/19 02:26:02;;;;;;;3.70;1.80;;;20.10;44.60;;;;;;5031305;28;20456;-72
2022/01/19 02:31:51;;;;;;;2.23;1.60;;;20.00;44.70;;;;;;5030774;28;20400;-72
2022/01/19 02:42:33;;;;;;;4.33;1.70;;;20.00;44.80;;;;;;5030848;28;20458;-72
2022/01/19 02:50:08;;;;;;;3.37;1.80;;;20.00;44.80;;;;;;5030735;28;20180;-72
2022/01/19 02:52:34;;;;;;;2.40;1.57;;;20.00;44.70;;;;;;5030685;28;20408;-72
2022/01/19 02:54:59;;;;;;;2.67;1.60;;;20.00;44.70;;;;;;5030612;28;20522;-72
2022/01/19 02:57:26;;;;;;;1.93;1.50;;;20.00;44.80;;;;;;5030613;28;20247;-72
2022/01/19 03:10:38;;;;;;;5.73;1.67;;;20.00;44.60;;;;;;5030960;28;20483;-73
2022/01/19 03:13:04;;;;;;;3.03;1.90;;;20.00;44.80;;;;;;5030304;28;20863;-73
2022/01/19 03:15:29;;;;;;;2.30;1.60;;;20.00;44.80;;;;;;5030535;28;20582;-74
2022/01/19 03:17:58;;;;;;;6.23;1.73;;;20.00;44.60;;;;;;5030651;28;20196;-74
2022/01/19 03:20:25;;;;;;;3.37;1.60;;;20.00;44.80;;;;;;5030284;28;20173;-73
2022/01/19 03:23:02;;;;;;;4.70;2.00;;;20.00;44.60;;;;;;5030328;28;20420;-73
2022/01/19 03:25:28;;;;;;;2.33;1.60;;;20.00;44.80;;;;;;5030656;28;20487;-73
2022/01/19 03:27:54;;;;;;;2.60;1.60;;;20.00;44.70;;;;;;5030351;28;20474;-74
2022/01/19 03:30:23;;;;;;;2.40;1.70;;;20.00;44.70;;;;;;5030167;28;20169;-73
2022/01/19 03:32:48;;;;;;;2.03;1.47;;;20.00;44.70;;;;;;5030394;28;20466;-73
2022/01/19 03:35:14;;;;;;;3.23;1.50;;;19.90;44.70;;;;;;5030460;28;20810;-74
2022/01/19 03:37:41;;;;;;;2.43;1.50;;;19.90;44.50;;;;;;5030406;28;20194;-74
2022/01/19 03:40:08;;;;;;;2.43;1.80;;;20.00;45.10;;;;;;5030327;28;20177;-74
2022/01/19 03:42:35;;;;;;;2.50;1.80;;;20.00;44.60;;;;;;5029753;28;20415;-73
2022/01/19 03:45:01;;;;;;;4.33;2.17;;;19.90;44.60;;;;;;5030396;28;20903;-73
2022/01/19 03:47:27;;;;;;;3.00;1.60;;;19.90;44.60;;;;;;5030164;28;20831;-74
2022/01/19 03:49:54;;;;;;;2.50;1.70;;;19.90;44.30;;;;;;5030117;28;20412;-73
2022/01/19 03:52:20;;;;;;;2.67;1.60;;;19.90;44.50;;;;;;5029980;28;20435;-73
2022/01/19 03:54:46;;;;;;;3.40;1.63;;;19.90;44.60;;;;;;5030066;28;20404;-73
2022/01/19 03:57:12;;;;;;;2.70;1.60;;;19.90;44.60;;;;;;5030125;28;20795;-73
2022/01/19 03:59:39;;;;;;;3.03;1.50;;;19.90;44.60;;;;;;5030183;28;20443;-72
2022/01/19 04:02:05;;;;;;;2.57;1.40;;;19.90;44.30;;;;;;5029942;28;20411;-73
2022/01/19 04:04:37;;;;;;;2.90;1.60;;;19.90;44.60;;;;;;5030130;28;20426;-73
2022/01/19 04:09:36;;;;;;;3.80;1.70;;;19.90;44.40;;;;;;5030134;28;20412;-73
2022/01/19 04:12:02;;;;;;;2.97;1.77;;;19.90;44.30;;;;;;5029503;28;20421;-73
2022/01/19 04:14:28;;;;;;;2.80;1.50;;;19.80;44.40;;;;;;5030143;28;20922;-72
2022/01/19 04:17:06;;;;;;;1.97;1.50;;;19.80;44.30;;;;;;5030051;28;20439;-73
2022/01/19 04:19:40;;;;;;;3.97;1.50;;;19.80;44.30;;;;;;5029665;28;20653;-72
2022/01/19 04:22:20;;;;;;;4.10;1.70;;;19.80;44.20;;;;;;5029819;28;20411;-72
2022/01/19 04:24:47;;;;;;;1.80;1.30;;;19.80;44.20;;;;;;5030103;28;20433;-72
2022/01/19 04:29:52;;;;;;;2.30;1.53;;;19.90;44.20;;;;;;5033367;28;20879;-72
2022/01/19 04:32:23;;;;;;;3.07;1.40;;;19.80;44.30;;;;;;5032929;28;20404;-72
2022/01/19 04:34:50;;;;;;;3.30;1.73;;;19.80;44.10;;;;;;5033512;28;21014;-73
2022/01/19 05:04:26;;;;;;;3.90;1.80;;;19.80;44.30;;;;;;5032893;28;20476;-72
2022/01/19 05:07:04;;;;;;;2.30;1.60;;;19.80;44.20;;;;;;5032699;28;20494;-72
2022/01/19 05:14:43;;;;;;;3.57;1.80;;;19.80;43.80;;;;;;5032906;28;20451;-72
2022/01/19 05:17:08;;;;;;;1.90;1.50;;;19.80;44.10;;;;;;5032581;28;20436;-72
2022/01/19 05:19:34;;;;;;;2.60;1.70;;;19.80;43.90;;;;;;5032241;28;20184;-72
2022/01/19 05:21:59;;;;;;;3.40;1.70;;;19.80;44.10;;;;;;5032387;28;20205;-72
2022/01/19 05:24:25;;;;;;;2.07;1.80;;;19.80;43.90;;;;;;5032785;28;20256;-72
2022/01/19 05:26:52;;;;;;;3.00;1.90;;;19.80;44.10;;;;;;5032392;28;20620;-73
2022/01/19 05:29:18;;;;;;;3.20;2.30;;;19.80;43.90;;;;;;5032459;28;20174;-72
2022/01/19 05:31:43;;;;;;;4.60;2.00;;;19.90;44.10;;;;;;5031809;28;20473;-72
2022/01/19 05:34:09;;;;;;;3.13;1.70;;;19.90;43.90;;;;;;5032237;28;20227;-72
2022/01/19 05:36:34;;;;;;;3.80;1.63;;;19.80;44.00;;;;;;5032377;28;20276;-72
2022/01/19 05:39:06;;;;;;;4.90;2.10;;;19.80;43.90;;;;;;5031076;28;20184;-72
2022/01/19 05:41:32;;;;;;;2.43;1.70;;;19.90;44.20;;;;;;5031759;28;20249;-72
2022/01/19 05:43:58;;;;;;;5.00;2.03;;;19.90;44.30;;;;;;5030492;28;20456;-72
2022/01/19 05:46:24;;;;;;;3.93;1.90;;;19.90;44.40;;;;;;5031864;28;20488;-72
2022/01/19 05:48:49;;;;;;;3.07;2.00;;;19.90;44.20;;;;;;5031922;28;20625;-73
2022/01/19 05:51:15;;;;;;;2.40;1.73;;;19.90;44.40;;;;;;5031575;28;20707;-74
2022/01/19 05:53:41;;;;;;;2.40;2.00;;;19.90;44.00;;;;;;5032053;28;20442;-72
2022/01/19 05:56:07;;;;;;;5.27;3.97;;;19.80;43.80;;;;;;5030365;28;20285;-72
2022/01/19 05:58:33;;;;;;;9.37;4.33;;;19.40;41.50;;;;;;5030435;28;20929;-73
2022/01/19 06:00:59;;;;;;;5.80;3.47;;;19.20;43.70;;;;;;5030781;28;20249;-73
2022/01/19 06:03:25;;;;;;;6.27;2.90;;;19.50;44.40;;;;;;5031549;28;20435;-73
2022/01/19 06:05:51;;;;;;;9.33;3.17;;;19.70;44.50;;;;;;5030187;28;20460;-73
2022/01/19 06:08:28;;;;;;;3.93;2.67;;;19.80;44.40;;;;;;5030809;28;20451;-73
2022/01/19 06:10:57;;;;;;;4.97;3.17;;;19.90;44.70;;;;;;5030992;28;20184;-72
2022/01/19 06:13:24;;;;;;;10.33;2.87;;;19.90;44.80;;;;;;5029161;28;20428;-73
2022/01/19 06:15:51;;;;;;;4.20;2.33;;;20.00;44.00;;;;;;5028041;28;20460;-72
2022/01/19 06:18:18;;;;;;;3.80;2.43;;;19.90;44.20;;;;;;5031367;28;20995;-72
2022/01/19 06:20:45;;;;;;;5.03;2.97;;;20.00;44.50;;;;;;5031549;28;20912;-72
2022/01/19 06:23:10;;;;;;;6.30;2.00;;;20.00;45.30;;;;;;5031278;28;20460;-73
2022/01/19 06:25:36;;;;;;;3.97;2.53;;;20.00;45.10;;;;;;5031400;28;20955;-72
2022/01/19 06:28:02;;;;;;;4.47;2.57;;;20.00;45.10;;;;;;5030825;28;20774;-72
2022/01/19 06:30:28;;;;;;;5.23;2.50;;;20.00;45.30;;;;;;5030528;28;20191;-73
2022/01/19 06:32:54;;;;;;;7.40;2.40;;;20.10;45.50;;;;;;5014117;28;20478;-73
2022/01/19 06:35:20;;;;;;;5.37;2.43;;;20.10;45.40;;;;;;5011198;28;20177;-73
2022/01/19 06:37:46;;;;;;;4.10;2.27;;;20.10;45.60;;;;;;5011259;28;20201;-72
2022/01/19 06:40:14;;;;;;;3.63;2.00;;;20.10;45.70;;;;;;5011089;28;20418;-73
2022/01/19 06:42:41;;;;;;;4.30;2.23;;;20.10;46.20;;;;;;5011006;28;20177;-73
2022/01/19 06:45:08;;;;;;;5.50;2.20;;;20.10;46.30;;;;;;5011160;28;20416;-73
2022/01/19 06:47:33;;;;;;;3.63;2.50;;;20.10;46.10;;;;;;5011090;28;20473;-73
2022/01/19 06:49:59;;;;;;;6.67;2.83;;;18.40;44.90;;;;;;5010798;28;20781;-73
2022/01/19 06:52:25;;;;;;;4.70;2.80;;;19.00;46.60;;;;;;5010954;28;20181;-72
2022/01/19 06:54:50;;;;;;;3.27;2.20;;;19.50;46.20;;;;;;5011029;28;20168;-72
2022/01/19 06:57:16;;;;;;;9.10;2.53;;;19.70;46.00;;;;;;5010850;28;20194;-73
2022/01/19 06:59:41;;;;;;;8.00;2.40;;;19.90;45.70;;;;;;5011080;28;20231;-73
2022/01/19 07:02:07;;;;;;;6.73;2.83;;;20.00;45.40;;;;;;5010603;28;20182;-73
2022/01/19 07:04:33;;;;;;;2.53;1.80;;;20.00;46.10;;;;;;5011170;28;20247;-73
2022/01/19 07:06:59;;;;;;;3.30;1.80;;;20.00;46.20;;;;;;5011005;28;20731;-74
2022/01/19 07:09:24;;;;;;;4.07;2.07;;;20.00;46.30;;;;;;5010548;28;20206;-74
2022/01/19 07:11:50;;;;;;;4.77;2.00;;;20.10;46.30;;;;;;5010763;28;20172;-73
2022/01/19 07:14:17;;;;;;;6.17;1.90;;;20.10;46.40;;;;;;5011003;28;20181;-73
2022/01/19 07:16:44;;;;;;;3.83;2.00;;;20.10;46.50;;;;;;5010721;28;20428;-73
2022/01/19 07:19:10;;;;;;;2.87;1.77;;;20.20;46.50;;;;;;5010904;28;20512;-73
2022/01/19 07:21:36;;;;;;;4.50;1.93;;;20.10;46.30;;;;;;5010272;28;20419;-74
2022/01/19 07:24:02;;;;;;;2.87;1.60;;;20.20;46.60;;;;;;5010652;28;20412;-73
2022/01/19 07:26:27;;;;;;;3.80;1.73;;;20.10;46.30;;;;;;5010951;28;20585;-73
2022/01/19 07:28:53;;;;;;;2.40;1.87;;;20.10;46.50;;;;;;5010909;28;20534;-73
2022/01/19 07:31:18;;;;;;;3.13;1.70;;;20.10;46.50;;;;;;5010334;28;20189;-74
2022/01/19 07:33:44;;;;;;;3.73;1.80;;;20.20;46.50;;;;;;5010607;28;20265;-72
2022/01/19 07:36:09;;;;;;;2.60;1.80;;;20.10;46.60;;;;;;5010983;28;20604;-72
2022/01/19 07:38:35;;;;;;;5.23;1.80;;;20.20;46.50;;;;;;5010907;28;20178;-72
2022/01/19 07:41:00;;;;;;;8.57;1.93;;;20.20;46.60;;;;;;5010636;28;20170;-73
2022/01/19 07:43:26;;;;;;;4.17;1.40;;;20.20;46.50;;;;;;5010536;28;20175;-73
2022/01/19 07:45:52;;;;;;;3.13;1.70;;;20.20;46.90;;;;;;5010211;28;20212;-73
2022/01/19 07:48:17;;;;;;;2.43;1.80;;;20.20;46.70;;;;;;5010581;28;20185;-73
2022/01/19 07:50:43;;;;;;;4.27;1.80;;;20.30;46.60;;;;;;5010742;28;20250;-73
2022/01/19 07:53:08;;;;;;;2.27;1.30;;;20.30;46.50;;;;;;5010236;28;20654;-73
2022/01/19 07:55:34;;;;;;;3.70;1.60;;;20.30;46.60;;;;;;5010677;28;20174;-73
2022/01/19 07:58:01;;;;;;;4.10;1.77;;;20.20;46.30;;;;;;5010188;28;20190;-73
2022/01/19 08:00:27;;;;;;;20.97;2.10;;;20.20;46.60;;;;;;5010568;28;20534;-72
2022/01/19 08:02:53;;;;;;;12.37;2.10;;;20.20;47.50;;;;;;5011533;28;20916;-74
2022/01/19 08:05:19;;;;;;;4.03;1.90;;;20.20;47.60;;;;;;5014202;28;20488;-73
2022/01/19 08:07:44;;;;;;;9.47;1.63;;;20.20;47.20;;;;;;5014155;28;20566;-74
2022/01/19 08:10:11;;;;;;;7.13;1.73;;;20.20;47.00;;;;;;5013702;28;20193;-75
2022/01/19 08:12:37;;;;;;;8.47;2.07;;;20.20;46.60;;;;;;5013817;28;20217;-75
2022/01/19 08:15:04;;;;;;;10.33;1.97;;;20.20;46.50;;;;;;5014116;28;20405;-75
2022/01/19 08:17:30;;;;;;;8.63;1.80;;;20.20;46.60;;;;;;5014304;28;20528;-75
2022/01/19 08:19:57;;;;;;;3.30;1.63;;;20.20;46.50;;;;;;5012627;28;20433;-75
2022/01/19 08:22:23;;;;;;;3.10;1.50;;;20.20;46.50;;;;;;5013317;28;20424;-75
2022/01/19 08:24:49;;;;;;;2.33;1.37;;;20.10;46.50;;;;;;5013750;28;20436;-75
2022/01/19 08:27:15;;;;;;;8.53;1.60;;;20.10;46.30;;;;;;5013939;28;20515;-75
2022/01/19 08:29:40;;;;;;;3.50;1.30;;;20.10;46.40;;;;;;5013753;28;20272;-75
2022/01/19 08:32:06;;;;;;;3.20;1.60;;;20.10;46.30;;;;;;5013387;28;20413;-75
2022/01/19 08:34:33;;;;;;;5.80;1.63;;;20.10;46.30;;;;;;5013537;28;20178;-75
2022/01/19 08:36:59;;;;;;;2.13;1.40;;;20.10;46.40;;;;;;5012361;28;20440;-75
2022/01/19 08:39:25;;;;;;;2.50;1.60;;;20.10;46.50;;;;;;5013426;28;20856;-75
2022/01/19 08:41:52;;;;;;;4.60;1.70;;;20.10;46.40;;;;;;5013292;28;20994;-75
2022/01/19 08:44:19;;;;;;;3.50;1.37;;;20.10;46.20;;;;;;5013584;28;20182;-75
2022/01/19 08:46:45;;;;;;;3.10;1.73;;;20.10;46.30;;;;;;5012839;28;20479;-75
2022/01/19 08:49:11;;;;;;;2.90;1.57;;;20.10;46.10;;;;;;5013433;28;20496;-75
2022/01/19 08:51:37;;;;;;;2.67;1.80;;;20.10;46.10;;;;;;5013167;28;20205;-75
2022/01/19 08:54:03;;;;;;;4.00;1.33;;;20.10;46.10;;;;;;5011905;28;20449;-75
2022/01/19 08:56:29;;;;;;;9.40;1.73;;;20.10;46.00;;;;;;5013316;28;20285;-75
2022/01/19 08:58:55;;;;;;;8.43;1.70;;;20.10;46.10;;;;;;5013036;28;20436;-75
2022/01/19 09:01:21;;;;;;;12.37;1.47;;;20.10;46.30;;;;;;5012826;28;20213;-75
2022/01/19 09:03:46;;;;;;;2.20;1.60;;;20.10;46.30;;;;;;5011962;28;20429;-75
2022/01/19 09:06:12;;;;;;;3.70;1.80;;;20.10;46.30;;;;;;5012920;28;20897;-75
2022/01/19 09:08:38;;;;;;;6.40;1.50;;;20.20;46.30;;;;;;5013114;28;20178;-75
2022/01/19 09:11:04;;;;;;;2.33;1.50;;;20.30;46.10;;;;;;5012752;28;20197;-75
2022/01/19 09:13:29;;;;;;;3.90;1.77;;;20.30;45.90;;;;;;5012741;28;20578;-76
2022/01/19 09:15:55;;;;;;;2.70;2.27;;;20.40;45.80;;;;;;5011530;28;20463;-75
2022/01/19 09:18:21;;;;;;;2.97;2.43;;;20.40;46.00;;;;;;5012903;28;20182;-75
2022/01/19 09:20:47;;;;;;;3.70;2.03;;;20.50;46.20;;;;;;5012757;28;20649;-75
2022/01/19 09:23:13;;;;;;;1.90;1.50;;;20.50;46.30;;;;;;5012155;28;20657;-76
2022/01/19 09:25:40;;;;;;;4.20;1.67;;;20.60;46.20;;;;;;5012803;28;20413;-75
2022/01/19 09:28:07;;;;;;;2.97;1.40;;;20.60;46.10;;;;;;5012570;28;20840;-75
2022/01/19 09:30:33;;;;;;;2.90;1.67;;;20.70;46.30;;;;;;5011185;28;20418;-75
2022/01/19 09:33:07;;;;;;;2.00;1.10;;;20.70;46.20;;;;;;5012276;28;20410;-75
2022/01/19 09:35:51;;;;;;;4.93;1.40;;;20.70;46.30;;;;;;5012369;28;20410;-75
2022/01/19 09:38:23;;;;;;;1.90;1.13;;;20.70;46.40;;;;;;5012494;28;20491;-75
2022/01/19 09:40:48;;;;;;;2.63;1.30;;;20.70;46.30;;;;;;5012360;28;20454;-75
2022/01/19 09:43:17;;;;;;;2.10;1.30;;;20.60;46.20;;;;;;5012161;28;20790;-75
2022/01/19 09:45:43;;;;;;;3.40;1.50;;;20.60;46.20;;;;;;5012120;28;20194;-75
2022/01/19 09:48:09;;;;;;;1.90;1.20;;;20.70;46.50;;;;;;5012076;28;20452;-75
2022/01/19 09:50:35;;;;;;;2.97;1.73;;;20.60;46.30;;;;;;5012268;28;20513;-75
2022/01/19 09:53:06;;;;;;;2.33;1.57;;;20.60;46.30;;;;;;5011819;28;20434;-75
2022/01/19 09:55:32;;;;;;;5.03;1.30;;;20.60;46.10;;;;;;5012340;28;20897;-75
2022/01/19 09:57:57;;;;;;;3.77;1.47;;;20.60;45.90;;;;;;5012214;28;20604;-75
2022/01/19 10:00:23;;;;;;;2.47;1.30;;;20.60;46.00;;;;;;5011729;28;20541;-75
2022/01/19 10:03:11;;;;;;;3.10;1.60;;;20.70;45.90;;;;;;5010688;28;20171;-75
2022/01/19 10:05:36;;;;;;;3.13;1.40;;;20.70;46.10;;;;;;5011974;28;20253;-75
2022/01/19 10:08:02;;;;;;;1.70;1.30;;;20.70;45.80;;;;;;5011789;28;20572;-76
2022/01/19 10:10:27;;;;;;;1.77;1.37;;;20.70;45.40;;;;;;5011957;28;20587;-75
2022/01/19 10:18:25;;;;;;;1.60;1.20;;;20.80;46.00;;;;;;5011813;28;20409;-75
2022/01/19 10:21:23;;;;;;;1.93;1.20;;;20.90;46.00;;;;;;5011628;28;20413;-75
2022/01/19 10:23:50;;;;;;;2.03;1.00;;;20.90;46.30;;;;;;4968014;28;20849;-75
2022/01/19 10:26:27;;;;;;;2.57;1.30;;;21.00;46.30;;;;;;5010558;28;20968;-75
2022/01/19 10:29:13;;;;;;;2.70;1.20;;;21.00;46.20;;;;;;5011494;28;20424;-75
2022/01/19 10:31:41;;;;;;;2.10;1.43;;;21.00;46.00;;;;;;5011254;28;20414;-76
2022/01/19 10:34:16;;;;;;;2.57;1.20;;;21.00;45.50;;;;;;5010192;28;20429;-75
2022/01/19 10:36:45;;;;;;;1.97;1.10;;;21.00;45.70;;;;;;5009751;28;20476;-75
2022/01/19 10:39:11;;;;;;;15.77;1.80;;;;;;;;;;5011356;28;20421;-75
2022/01/19 10:41:56;;;;;;;2.90;1.60;;;;;;;;;;5011146;28;20445;-75
2022/01/19 10:44:29;;;;;;;1.93;1.03;;;;;;;;;;5009890;28;20467;-75
2022/01/19 10:46:55;;;;;;;2.70;1.90;;;;;;;;;;5011040;28;20543;-75
2022/01/19 10:49:21;;;;;;;3.00;1.73;;;;;;;;;;5010797;28;20397;-75
2022/01/19 10:51:48;;;;;;;3.80;2.20;;;;;;;;;;5009555;28;20778;-75
2022/01/19 10:54:16;;;;;;;5.00;1.97;;;;;;;;;;5010233;28;20175;-76
2022/01/19 10:56:43;;;;;;;2.87;1.70;;;;;;;;;;5011132;28;20464;-77
2022/01/19 10:59:14;;;;;;;3.60;1.50;;;;;;;;;;5010863;28;20429;-77
2022/01/19 11:01:42;;;;;;;4.53;1.70;;;;;;;;;;5010679;28;20483;-76
2022/01/19 11:04:22;;;;;;;3.63;2.37;;;;;;;;;;5011065;28;20409;-76
2022/01/19 11:06:49;;;;;;;2.80;1.50;;;;;;;;;;5010837;28;20496;-76
2022/01/19 11:09:15;;;;;;;3.20;1.37;;;;;;;;;;5010936;28;20948;-75
2022/01/19 11:11:44;;;;;;;2.60;1.23;;;;;;;;;;5011004;28;20762;-76
2022/01/19 11:14:15;;;;;;;2.67;1.50;;;;;;;;;;5016958;28;20409;-77
2022/01/19 11:16:42;;;;;;;2.40;1.40;;;;;;;;;;5033920;28;20459;-78
2022/01/19 11:19:08;;;;;;;2.20;1.40;;;;;;;;;;5033691;28;20436;-78
2022/01/19 11:21:38;;;;;;;2.63;1.47;;;;;;;;;;5035317;28;20880;-78
2022/01/19 11:24:21;;;;;;;2.50;1.37;;;;;;;;;;5035422;28;20416;-78
2022/01/19 11:26:47;;;;;;;6.47;1.50;;;;;;;;;;5033020;28;20455;-77
2022/01/19 11:29:18;;;;;;;4.70;1.30;;;;;;;;;;5030541;28;20416;-77
2022/01/19 11:31:45;;;;;;;2.60;1.30;;;;;;;;;;5028877;28;20444;-75
2022/01/19 11:34:11;;;;;;;2.57;1.50;;;;;;;;;;5030858;28;20511;-77
2022/01/19 11:36:42;;;;;;;3.90;1.53;;;;;;;;;;5031534;28;20841;-77
2022/01/19 11:39:08;;;;;;;6.40;1.40;;;;;;;;;;5034450;28;20908;-77
2022/01/19 11:41:43;;;;;;;3.03;1.33;;;;;;;;;;5035582;28;20407;-78
2022/01/19 11:44:14;;;;;;;2.73;1.83;;;;;;;;;;5037474;28;20407;-78
2022/01/19 11:46:43;;;;;;;3.50;1.30;;;;;;;;;;5034911;28;20468;-76
2022/01/19 11:49:10;;;;;;;3.00;1.50;;;;;;;;;;5034279;28;20471;-77
2022/01/19 11:51:42;;;;;;;2.20;1.20;;;;;;;;;;5032049;28;20466;-77
2022/01/19 11:54:13;;;;;;;2.00;1.47;;;;;;;;;;5033221;28;20448;-76
2022/01/19 11:56:57;;;;;;;3.13;1.60;;;;;;;;;;5033943;28;20428;-76
2022/01/19 11:59:25;;;;;;;1.80;1.10;;;;;;;;;;5033625;28;20424;-76
2022/01/19 12:01:51;;;;;;;2.20;1.40;;;;;;;;;;5033402;28;20408;-77
2022/01/19 12:04:21;;;;;;;2.57;1.60;;;;;;;;;;5034292;28;20766;-77
2022/01/19 12:06:47;;;;;;;2.23;1.23;;;;;;;;;;5032100;28;20898;-77
2022/01/19 12:09:14;;;;;;;2.07;1.20;;;;;;;;;;5033722;28;20892;-77
2022/01/19 12:11:49;;;;;;;4.07;1.30;;;;;;;;;;5036926;28;20428;-75
2022/01/19 12:14:23;;;;;;;2.20;1.20;;;21.80;65.10;;;;;;5034192;28;20488;-77
2022/01/19 12:17:06;;;;;;;2.07;1.37;;;21.80;66.70;;;;;;5034005;28;20511;-76
2022/01/19 12:19:43;;;;;;;5.10;1.37;;;21.70;66.50;;;;;;5033842;28;20753;-76
2022/01/19 12:22:20;;;;;;;2.37;1.50;;;21.70;66.50;;;;;;5033337;28;20490;-76
2022/01/19 12:25:08;;;;;;;2.70;1.67;;;21.70;66.00;;;;;;5033672;28;20420;-76
2022/01/19 12:27:36;;;;;;;3.37;1.40;;;21.70;64.90;;;;;;5033246;28;20513;-76
2022/01/19 12:30:10;;;;;;;2.23;1.37;;;21.90;64.20;;;;;;5033456;28;20423;-76
2022/01/19 12:32:41;;;;;;;1.90;1.10;;;21.70;63.30;;;;;;5033202;28;20478;-76
2022/01/19 12:35:35;;;;;;;2.20;1.40;;;21.70;62.70;;;;;;5033375;28;20412;-76
2022/01/19 12:38:04;;;;;;;2.17;1.43;;;21.70;62.00;;;;;;5033335;28;20424;-76
2022/01/19 12:40:33;;;;;;;4.83;1.67;;;21.60;61.40;;;;;;5033371;28;20424;-75
2022/01/19 12:43:02;;;;;;;1.90;1.27;;;21.80;61.20;;;;;;5031691;28;20424;-75
2022/01/19 12:45:30;;;;;;;2.33;1.40;;;21.60;60.60;;;;;;5033300;28;20451;-76
2022/01/19 12:48:00;;;;;;;2.53;1.50;;;21.60;60.00;;;;;;5032489;28;20452;-76
2022/01/19 12:50:28;;;;;;;2.47;1.30;;;21.80;59.70;;;;;;5032932;28;20400;-76
2022/01/19 12:53:00;;;;;;;2.07;1.30;;;21.60;59.50;;;;;;5032552;28;20397;-76
2022/01/19 12:55:28;;;;;;;1.83;1.40;;;21.60;59.00;;;;;;5033180;28;20478;-75
2022/01/19 12:57:56;;;;;;;2.37;1.50;;;21.60;59.00;;;;;;5032825;28;20420;-76
2022/01/19 13:00:27;;;;;;;3.77;1.57;;;21.60;58.50;;;;;;5032783;28;20396;-76
2022/01/19 13:02:53;;;;;;;12.80;6.23;;;21.60;58.10;;;;;;5032600;28;20760;-76
2022/01/19 13:05:20;;;;;;;7.67;4.90;;;20.30;47.80;;;;;;5034262;28;20905;-77
2022/01/19 13:07:53;;;;;;;4.80;3.27;;;20.10;53.50;;;;;;5034665;28;20284;-77
2022/01/19 13:15:38;;;;;;;5.70;3.30;;;21.10;54.50;;;;;;5034209;28;20470;-77
2022/01/19 13:18:04;;;;;;;3.57;2.70;;;21.20;55.30;;;;;;5034416;28;20896;-77
2022/01/19 13:20:29;;;;;;;4.20;2.73;;;21.30;55.20;;;;;;5034634;28;20488;-77
2022/01/19 13:22:56;;;;;;;5.20;2.37;;;21.50;55.20;;;;;;5034247;28;20169;-77
2022/01/19 13:25:26;;;;;;;4.10;2.53;;;21.30;54.30;;;;;;5034777;28;20170;-78
2022/01/19 13:27:57;;;;;;;6.27;2.90;;;21.40;54.50;;;;;;5034054;28;20527;-76
2022/01/19 13:30:25;;;;;;;7.70;3.40;;;21.30;54.80;;;;;;5035309;28;20413;-78
2022/01/19 13:32:52;;;;;;;8.13;3.83;;;21.30;54.40;;;;;;5034496;28;20986;-78
2022/01/19 13:35:19;;;;;;;6.43;3.43;;;21.40;54.50;;;;;;5033187;28;20780;-77
2022/01/19 13:37:54;;;;;;;7.27;3.80;;;21.40;54.60;;;;;;5034666;28;20436;-77
2022/01/19 13:40:22;;;;;;;5.00;3.10;;;21.30;53.90;;;;;;5032810;28;20501;-78
2022/01/19 13:42:52;;;;;;;7.70;4.13;;;21.30;54.10;;;;;;5034117;28;20397;-78
2022/01/19 13:50:48;;;;;;;10.57;4.13;;;21.20;53.60;;;;;;5033959;28;20447;-77
2022/01/19 13:53:15;;;;;;;8.33;4.13;;;21.30;54.10;;;;;;5034684;28;20393;-78
2022/01/19 13:55:41;;;;;;;13.80;4.87;;;21.40;54.00;;;;;;5034900;28;20397;-78
2022/01/19 13:58:15;;;;;;;9.10;4.00;;;21.50;53.80;;;;;;5033401;28;20511;-79
2022/01/19 14:00:52;;;;;;;8.83;4.07;;;21.60;54.10;;;;;;5033765;28;20404;-78
2022/01/19 14:03:20;;;;;;;9.03;4.33;;;21.30;52.90;;;;;;5032914;28;20408;-78
2022/01/19 14:05:52;;;;;;;9.90;3.93;;;21.50;53.60;;;;;;5033914;28;20401;-79
2022/01/19 14:08:29;;;;;;;9.87;4.37;;;21.50;53.30;;;;;;5034379;28;20507;-78
2022/01/19 14:10:55;;;;;;;15.53;4.10;;;21.40;53.40;;;;;;5034856;28;20405;-78
2022/01/19 14:13:20;;;;;;;12.53;5.37;;;21.60;53.40;;;;;;5034344;28;20919;-77
2022/01/19 14:15:46;;;;;;;10.83;4.47;;;21.60;53.40;;;;;;5034912;28;20194;-79
2022/01/19 14:18:11;;;;;;;9.17;4.37;;;21.50;53.20;;;;;;5033589;28;20669;-78
2022/01/19 14:20:44;;;;;;;10.00;4.90;;;21.50;52.90;;;;;;5139672;27;20526;-67
2022/01/19 14:23:15;;;;;;;10.93;4.60;;;21.50;53.00;;;;;;5112734;28;20404;-66
2022/01/19 14:25:41;;;;;;;11.27;4.57;;;21.50;52.90;;;;;;5112903;28;20170;-66
2022/01/19 14:28:16;;;;;;;14.70;5.60;;;21.50;53.00;;;;;;5112867;28;20400;-67
2022/01/19 14:30:42;;;;;;;9.10;4.40;;;21.50;53.00;;;;;;5112595;28;20431;-66
2022/01/19 14:33:15;;;;;;;9.20;4.57;;;21.50;53.00;;;;;;5112262;28;20503;-65
2022/01/19 14:35:40;;;;;;;9.93;3.63;;;21.50;53.00;;;;;;5112797;28;20397;-66
2022/01/19 14:38:19;;;;;;;13.30;4.70;;;21.50;52.90;;;;;;5112770;28;20907;-67
2022/01/19 14:41:02;;;;;;;12.77;4.50;;;21.50;52.70;;;;;;5112128;28;20254;-67
2022/01/19 14:43:43;;;;;;;13.77;5.20;;;21.50;52.60;;;;;;5112442;28;20514;-66
2022/01/19 14:46:12;;;;;;;12.20;5.00;;;21.50;52.70;;;;;;5112678;28;20408;-67